Terminal Aerodrome Forecast
Issued by NWS St Louis, MO

Home | Current Version | Previous Version | Text Only | Print | Product List | Glossary On
Versions: 1 2 3 4 5 6 7 8 9 10 11 12 13 14 15 16 17 18 19 20 21 22
902
FTUS43 KLSX 152340 AAD
TAFCOU
TAF AMD
KCOU 152340Z 1600/1624 09006KT 3SM -DZ BR OVC003
     FM160900 10008KT 2SM -RA BR OVC003
     FM161200 11010KT 1SM RA BR OVC003
     FM162100 15010KT 3SM -RA BR OVC005=

USA.gov is the U.S. government's official web portal to all federal, state and local government web resources and services.